createdAt,value
2018-06-25T00:00:50.628Z,14
2018-06-25T00:02:00.602Z,14.01
2018-06-25T00:03:10.315Z,13.93
2018-06-25T00:04:20.046Z,14
2018-06-25T00:05:29.750Z,14.03
2018-06-25T00:06:39.720Z,13.95
2018-06-25T00:07:49.426Z,14
2018-06-25T00:08:59.137Z,14
2018-06-25T00:10:09.095Z,14.01
2018-06-25T00:11:18.791Z,13.93
2018-06-25T00:12:28.504Z,13.97
2018-06-25T00:13:38.463Z,13.98
2018-06-25T00:14:48.266Z,13.93
2018-06-25T00:15:58.231Z,14
2018-06-25T00:17:08.196Z,14
2018-06-25T00:18:17.895Z,14.04
2018-06-25T00:19:27.861Z,13.94
2018-06-25T00:20:37.823Z,13.94
2018-06-25T00:21:47.796Z,13.93
2018-06-25T00:22:57.761Z,13.83
2018-06-25T00:24:07.769Z,13.93
2018-06-25T00:25:17.475Z,13.95
2018-06-25T00:26:27.437Z,13.89
2018-06-25T00:27:37.443Z,14.01
2018-06-25T00:28:47.145Z,13.86
2018-06-25T00:29:57.119Z,13.87
2018-06-25T00:31:06.828Z,13.94
2018-06-25T00:32:17.039Z,13.91
2018-06-25T00:33:26.732Z,13.82
2018-06-25T00:34:36.503Z,13.79
2018-06-25T00:35:46.464Z,13.76
2018-06-25T00:36:56.173Z,13.76
2018-06-25T00:38:05.878Z,13.7
2018-06-25T00:39:15.873Z,13.7
2018-06-25T00:40:25.572Z,13.64
2018-06-25T00:41:35.025Z,13.75
2018-06-25T00:42:44.987Z,13.71
2018-06-25T00:43:54.937Z,13.61
2018-06-25T00:45:04.921Z,13.6
2018-06-25T00:46:14.629Z,13.62
2018-06-25T00:47:24.585Z,13.58
2018-06-25T00:48:34.027Z,13.58
2018-06-25T00:49:43.975Z,13.52
2018-06-25T00:50:53.952Z,13.58
2018-06-25T00:52:03.674Z,13.5
2018-06-25T00:53:13.632Z,13.5
2018-06-25T00:54:23.589Z,13.49
2018-06-25T00:55:33.295Z,13.46
2018-06-25T00:56:43.283Z,13.45
2018-06-25T00:57:53.237Z,13.42
2018-06-25T00:59:02.939Z,13.4
2018-06-25T01:00:12.381Z,13.39
2018-06-25T01:01:22.354Z,13.3
2018-06-25T01:02:32.061Z,13.37
2018-06-25T01:03:42.012Z,13.36
2018-06-25T01:04:51.970Z,13.39
2018-06-25T01:06:02.026Z,13.47
2018-06-25T01:07:12.324Z,13.36
2018-06-25T01:08:22.021Z,13.45
2018-06-25T01:09:31.980Z,13.3
2018-06-25T01:10:41.683Z,13.31
2018-06-25T01:11:51.643Z,13.28
2018-06-25T01:13:01.343Z,13.24
2018-06-25T01:14:10.785Z,13.31
2018-06-25T01:15:20.229Z,13.36
2018-06-25T01:16:30.191Z,13.28
2018-06-25T01:17:40.157Z,13.26
2018-06-25T01:18:50.122Z,13.37
2018-06-25T01:20:00.097Z,13.33
2018-06-25T01:21:09.563Z,13.45
2018-06-25T01:22:19.521Z,13.36
2018-06-25T01:23:29.471Z,13.37
2018-06-25T01:24:39.434Z,13.39
2018-06-25T01:25:49.134Z,13.36
2018-06-25T01:26:59.094Z,13.39
2018-06-25T01:28:09.060Z,13.37
2018-06-25T01:29:19.019Z,13.46
2018-06-25T01:30:28.771Z,13.33
2018-06-25T01:31:38.722Z,13.45
2018-06-25T01:32:48.694Z,13.31
2018-06-25T01:33:58.665Z,13.36
2018-06-25T01:35:08.631Z,13.3
2018-06-25T01:36:18.323Z,13.4
2018-06-25T01:37:28.282Z,13.37
2018-06-25T01:38:38.475Z,13.45
2018-06-25T01:39:47.929Z,13.43
2018-06-25T01:40:57.896Z,13.4
2018-06-25T01:42:07.868Z,13.42
2018-06-25T01:43:17.823Z,13.45
2018-06-25T01:44:27.791Z,13.47
2018-06-25T01:45:37.490Z,13.5
2018-06-25T01:46:47.461Z,13.49
2018-06-25T01:47:57.188Z,13.47
2018-06-25T01:49:06.634Z,13.5
2018-06-25T01:50:16.584Z,13.5
2018-06-25T01:51:26.293Z,13.47
2018-06-25T01:52:35.998Z,13.47
2018-06-25T01:53:45.968Z,13.5
2018-06-25T01:54:55.682Z,13.54
2018-06-25T01:56:05.633Z,13.5
2018-06-25T01:57:15.097Z,13.58
2018-06-25T01:58:25.062Z,13.49
2018-06-25T01:59:34.770Z,13.47
2018-06-25T02:00:44.736Z,13.46
2018-06-25T02:01:54.698Z,13.58
2018-06-25T02:03:04.404Z,13.52
2018-06-25T02:04:14.103Z,13.6
2018-06-25T02:05:24.073Z,13.57
2018-06-25T02:06:33.773Z,13.55
2018-06-25T02:07:43.738Z,13.57
2018-06-25T02:08:53.691Z,13.6
2018-06-25T02:10:03.655Z,13.58
2018-06-25T02:11:13.353Z,13.58
2018-06-25T02:12:23.058Z,13.62
2018-06-25T02:13:32.765Z,13.65
2018-06-25T02:14:42.212Z,13.64
2018-06-25T02:15:52.171Z,13.65
2018-06-25T02:17:02.141Z,13.6
2018-06-25T02:18:12.102Z,13.62
2018-06-25T02:19:21.814Z,13.64
2018-06-25T02:20:31.783Z,13.61
2018-06-25T02:21:41.756Z,13.6
2018-06-25T02:22:51.716Z,13.61
2018-06-25T02:24:01.696Z,13.64
2018-06-25T02:25:11.654Z,13.64
2018-06-25T02:26:21.621Z,13.6
2018-06-25T02:27:31.601Z,13.57
2018-06-25T02:28:41.561Z,13.55
2018-06-25T02:29:51.262Z,13.6
2018-06-25T02:31:00.986Z,13.52
2018-06-25T02:32:10.950Z,13.54
2018-06-25T02:33:20.409Z,13.5
2018-06-25T02:34:30.115Z,13.55
2018-06-25T02:35:39.568Z,13.5
2018-06-25T02:36:49.538Z,13.5
2018-06-25T02:37:59.255Z,13.5
2018-06-25T02:39:09.226Z,13.42
2018-06-25T02:40:19.188Z,13.45
2018-06-25T02:41:28.903Z,13.5
2018-06-25T02:42:38.869Z,13.3
2018-06-25T02:43:48.575Z,13.36
2018-06-25T02:44:58.551Z,13.36
2018-06-25T02:46:08.275Z,13.4
2018-06-25T02:47:18.316Z,13.27
2018-06-25T02:48:28.290Z,13.45
2018-06-25T02:49:38.262Z,13.37
2018-06-25T02:50:47.971Z,13.28
2018-06-25T02:51:57.946Z,13.42
2018-06-25T02:53:07.927Z,13.28
2018-06-25T02:54:17.900Z,13.3
2018-06-25T02:55:27.361Z,13.26
2018-06-25T02:56:37.323Z,13.28
2018-06-25T02:57:47.291Z,13.37
2018-06-25T02:58:57.255Z,13.26
2018-06-25T03:00:07.230Z,13.24
2018-06-25T03:01:17.204Z,13.24
2018-06-25T03:02:26.419Z,13.26
2018-06-25T03:03:36.405Z,13.19
2018-06-25T03:04:46.361Z,13.27
2018-06-25T03:05:56.344Z,13.23
2018-06-25T03:07:06.321Z,13.23
2018-06-25T03:08:16.286Z,13.21
2018-06-25T03:09:26.276Z,13.26
2018-06-25T03:10:35.996Z,13.24
2018-06-25T03:11:45.976Z,13.3
2018-06-25T03:12:55.926Z,13.21
2018-06-25T03:14:05.889Z,13.21
2018-06-25T03:15:15.594Z,13.28
2018-06-25T03:16:25.566Z,13.27
2018-06-25T03:17:35.266Z,13.31
2018-06-25T03:18:45.242Z,13.39
2018-06-25T03:19:55.220Z,13.31
2018-06-25T03:21:05.192Z,13.43
2018-06-25T03:22:14.659Z,13.43
2018-06-25T03:23:24.636Z,13.43
2018-06-25T03:24:34.599Z,13.43
2018-06-25T03:25:44.554Z,13.43
2018-06-25T03:26:54.017Z,13.33
2018-06-25T03:28:03.720Z,13.37
2018-06-25T03:29:13.419Z,13.37
2018-06-25T03:30:23.369Z,13.3
2018-06-25T03:31:33.336Z,13.31
2018-06-25T03:32:43.049Z,13.23
2018-06-25T03:33:53.015Z,13.21
2018-06-25T03:35:02.970Z,13.24
2018-06-25T03:36:12.934Z,13.24
2018-06-25T03:37:22.631Z,13.23
2018-06-25T03:38:32.646Z,13.27
2018-06-25T03:39:42.357Z,13.24
2018-06-25T03:40:52.328Z,13.26
2018-06-25T03:42:02.037Z,13.28
2018-06-25T03:43:12.076Z,13.3
2018-06-25T03:44:21.844Z,13.24
2018-06-25T03:45:31.804Z,13.24
2018-06-25T03:46:41.508Z,13.17
2018-06-25T03:47:51.489Z,13.23
2018-06-25T03:49:01.457Z,13.23
2018-06-25T03:50:10.895Z,13.19
2018-06-25T03:51:20.850Z,13.2
2018-06-25T03:52:30.815Z,13.17
2018-06-25T03:53:40.902Z,13.23
2018-06-25T03:54:50.862Z,13.27
2018-06-25T03:56:00.569Z,13.26
2018-06-25T03:57:10.533Z,13.27
2018-06-25T03:58:20.234Z,13.21
2018-06-25T03:59:29.942Z,13.12
2018-06-25T04:00:39.893Z,13.11
2018-06-25T04:01:49.605Z,13.13
2018-06-25T04:02:59.567Z,13.16
2018-06-25T04:04:09.541Z,13.05
2018-06-25T04:05:19.516Z,13.08
2018-06-25T04:06:29.490Z,13.11
2018-06-25T04:07:39.453Z,13.08
2018-06-25T04:08:49.414Z,13.08
2018-06-25T04:09:59.369Z,13.17
2018-06-25T04:11:09.344Z,13.11
2018-06-25T04:12:19.466Z,13.19
2018-06-25T04:13:29.421Z,13.24
2018-06-25T04:14:39.384Z,13.26
2018-06-25T04:15:49.336Z,13.3
2018-06-25T04:16:59.294Z,13.24
2018-06-25T04:18:08.997Z,13.33
2018-06-25T04:19:18.442Z,13.33
2018-06-25T04:20:28.395Z,13.3
2018-06-25T04:21:38.104Z,13.43
2018-06-25T04:22:48.131Z,13.46
2018-06-25T04:23:57.846Z,13.46
2018-06-25T04:25:07.831Z,13.46
2018-06-25T04:26:17.805Z,13.42
2018-06-25T04:27:27.758Z,13.45
2018-06-25T04:28:37.469Z,13.43
2018-06-25T04:29:47.425Z,13.33
2018-06-25T04:30:57.423Z,13.39
2018-06-25T04:32:07.152Z,13.4
2018-06-25T04:33:17.101Z,13.33
2018-06-25T04:34:27.090Z,13.31
2018-06-25T04:35:37.057Z,13.36
2018-06-25T04:36:47.029Z,13.36
2018-06-25T04:37:56.989Z,13.36
2018-06-25T04:39:06.695Z,13.28
2018-06-25T04:40:16.745Z,13.31
2018-06-25T04:41:26.247Z,13.28
2018-06-25T04:42:35.702Z,13.26
2018-06-25T04:43:45.674Z,13.21
2018-06-25T04:44:55.658Z,13.27
2018-06-25T04:46:05.621Z,13.2
2018-06-25T04:47:15.583Z,13.24
2018-06-25T04:48:25.291Z,13.09
2018-06-25T04:49:34.997Z,13.12
2018-06-25T04:50:44.967Z,13.12
2018-06-25T04:51:54.966Z,13.2
2018-06-25T04:53:04.424Z,13.09
2018-06-25T04:54:14.409Z,13.09
2018-06-25T04:55:24.119Z,13.06
2018-06-25T04:56:34.083Z,13.06
2018-06-25T04:57:44.059Z,13.05
2018-06-25T04:58:53.753Z,12.98
2018-06-25T05:00:03.720Z,12.94
2018-06-25T05:01:13.818Z,13.06
2018-06-25T05:02:24.088Z,13.05
2018-06-25T05:03:34.074Z,13.06
2018-06-25T05:04:44.050Z,13.11
2018-06-25T05:05:54.036Z,13.08
2018-06-25T05:07:03.764Z,13.11
2018-06-25T05:08:13.463Z,13.24
2018-06-25T05:09:23.156Z,13.24
2018-06-25T05:10:33.124Z,13.24
2018-06-25T05:11:42.831Z,13.3
2018-06-25T05:12:52.534Z,13.31
2018-06-25T05:14:02.507Z,13.33
2018-06-25T05:15:12.474Z,13.39
2018-06-25T05:16:22.445Z,13.31
2018-06-25T05:17:32.153Z,13.4
2018-06-25T05:18:42.107Z,13.36
2018-06-25T05:19:51.556Z,13.45
2018-06-25T05:21:01.265Z,13.39
2018-06-25T05:22:11.246Z,13.47
2018-06-25T05:23:20.690Z,13.46
2018-06-25T05:24:30.392Z,13.54
2018-06-25T05:25:40.371Z,13.54
2018-06-25T05:26:50.085Z,13.52
2018-06-25T05:28:00.164Z,13.65
2018-06-25T05:29:10.202Z,13.67
2018-06-25T05:30:20.318Z,13.65
2018-06-25T05:31:30.246Z,13.7
2018-06-25T05:32:40.218Z,13.65
2018-06-25T05:33:50.220Z,13.61
2018-06-25T05:34:59.932Z,13.5
2018-06-25T05:36:09.913Z,13.49
2018-06-25T05:37:19.912Z,13.46
2018-06-25T05:38:29.872Z,13.6
2018-06-25T05:39:39.427Z,13.55
2018-06-25T05:40:49.862Z,13.4
2018-06-25T05:41:59.840Z,13.54
2018-06-25T05:43:09.842Z,13.58
2018-06-25T05:44:19.538Z,13.64
2018-06-25T05:45:29.255Z,13.67
2018-06-25T05:46:39.230Z,13.73
2018-06-25T05:47:49.222Z,13.85
2018-06-25T05:48:59.502Z,13.87
2018-06-25T05:50:09.476Z,14.01
2018-06-25T05:51:19.452Z,13.95
2018-06-25T05:52:29.163Z,14.08
2018-06-25T05:53:39.158Z,14.01
2018-06-25T05:54:49.137Z,14.2
2018-06-25T05:55:58.875Z,14.16
2018-06-25T05:57:08.902Z,14.26
2018-06-25T05:58:18.910Z,14.25
2018-06-25T05:59:28.877Z,14.25
2018-06-25T06:00:38.351Z,14.33
2018-06-25T06:01:48.325Z,14.33
2018-06-25T06:02:58.060Z,14.55
2018-06-25T06:04:08.037Z,14.53
2018-06-25T06:05:17.221Z,14.59
2018-06-25T06:06:26.930Z,14.71
2018-06-25T06:07:36.687Z,14.78
2018-06-25T06:08:46.662Z,14.77
2018-06-25T06:09:56.375Z,14.71
2018-06-25T06:11:06.356Z,14.52
2018-06-25T06:12:16.332Z,14.49
2018-06-25T06:13:26.068Z,14.56
2018-06-25T06:14:36.049Z,14.56
2018-06-25T06:15:46.025Z,14.53
2018-06-25T06:16:56.007Z,14.58
2018-06-25T06:18:06.010Z,14.62
2018-06-25T06:19:15.743Z,14.73
2018-06-25T06:20:25.715Z,14.81
2018-06-25T06:21:35.684Z,14.85
2018-06-25T06:22:45.690Z,14.93
2018-06-25T06:23:55.666Z,14.85
2018-06-25T06:25:05.374Z,14.85
2018-06-25T06:26:15.403Z,14.86
2018-06-25T06:27:24.914Z,14.86
2018-06-25T06:28:34.925Z,14.87
2018-06-25T06:29:44.653Z,14.87
2018-06-25T06:30:54.647Z,14.92
2018-06-25T06:32:04.762Z,15.04
2018-06-25T06:33:15.156Z,14.89
2018-06-25T06:34:25.135Z,14.89
2018-06-25T06:35:35.141Z,14.82
2018-06-25T06:36:44.874Z,14.81
2018-06-25T06:37:54.855Z,14.77
2018-06-25T06:39:04.826Z,14.87
2018-06-25T06:40:14.651Z,14.9
2018-06-25T06:41:24.637Z,14.87
2018-06-25T06:42:34.613Z,14.9
2018-06-25T06:43:44.609Z,14.92
2018-06-25T06:44:54.328Z,14.86
2018-06-25T06:46:04.058Z,14.77
2018-06-25T06:47:14.041Z,14.71
2018-06-25T06:48:23.749Z,14.79
2018-06-25T06:49:33.720Z,14.73
2018-06-25T06:50:43.677Z,15.02
2018-06-25T06:51:53.662Z,14.97
2018-06-25T06:53:03.647Z,15.11
2018-06-25T06:54:13.551Z,15.1
2018-06-25T06:55:23.528Z,15.19
2018-06-25T06:56:33.249Z,15.02
2018-06-25T06:57:43.389Z,14.9
2018-06-25T06:58:53.224Z,14.74
2018-06-25T07:00:02.957Z,14.77
2018-06-25T07:01:12.675Z,14.73
2018-06-25T07:02:22.687Z,14.79
2018-06-25T07:03:32.409Z,14.77
2018-06-25T07:04:42.582Z,14.74
2018-06-25T07:05:52.548Z,14.85
2018-06-25T07:07:02.530Z,14.81
2018-06-25T07:08:12.503Z,14.63
2018-06-25T07:09:22.464Z,14.77
2018-06-25T07:10:32.177Z,14.61
2018-06-25T07:11:42.164Z,14.49
2018-06-25T07:12:52.201Z,14.51
2018-06-25T07:14:02.174Z,14.52
2018-06-25T07:15:11.900Z,14.3
2018-06-25T07:16:21.357Z,14.34
2018-06-25T07:17:31.340Z,14.23
2018-06-25T07:18:41.331Z,14.33
2018-06-25T07:19:50.786Z,14.49
2018-06-25T07:21:00.800Z,14.45
2018-06-25T07:22:10.263Z,14.52
2018-06-25T07:23:19.979Z,14.52
2018-06-25T07:24:29.692Z,14.53
2018-06-25T07:25:39.412Z,14.48
2018-06-25T07:26:49.404Z,14.37
2018-06-25T07:27:59.116Z,14.33
2018-06-25T07:29:09.243Z,14.28
2018-06-25T07:30:19.376Z,14.19
2018-06-25T07:31:29.357Z,14.13
2018-06-25T07:32:39.343Z,14.19
2018-06-25T07:33:49.047Z,14.22
2018-06-25T07:34:58.796Z,14.28
2018-06-25T07:36:08.776Z,14.31
2018-06-25T07:37:18.774Z,14.33
2018-06-25T07:38:28.481Z,14.34
2018-06-25T07:39:38.216Z,14.22
2018-06-25T07:40:48.211Z,14.3
2018-06-25T07:41:58.189Z,14.37
2018-06-25T07:43:07.916Z,14.53
2018-06-25T07:44:17.675Z,14.31
2018-06-25T07:45:27.400Z,14.43
2018-06-25T07:46:37.684Z,14.28
2018-06-25T07:47:47.402Z,14.23
2018-06-25T07:48:57.375Z,14.26
2018-06-25T07:50:07.095Z,14.12
2018-06-25T07:51:17.107Z,14.03
2018-06-25T07:52:27.112Z,14.07
2018-06-25T07:53:37.034Z,13.98
2018-06-25T07:54:47.345Z,14
2018-06-25T07:55:57.326Z,14.07
2018-06-25T07:57:07.029Z,14.03
2018-06-25T07:58:17.001Z,14.07
2018-06-25T07:59:26.716Z,14.05
2018-06-25T08:00:36.712Z,14.01
2018-06-25T08:01:46.701Z,14.07
2018-06-25T08:02:56.692Z,14.08
2018-06-25T08:04:06.670Z,14.2
2018-06-25T08:05:16.665Z,14.2
2018-06-25T08:06:26.409Z,14.18
2018-06-25T08:07:36.409Z,14.11
2018-06-25T08:08:46.422Z,14.2
2018-06-25T08:09:56.976Z,14.13
2018-06-25T08:11:06.835Z,14.13
2018-06-25T08:12:16.820Z,14.2
2018-06-25T08:13:26.800Z,14.23
2018-06-25T08:14:36.517Z,14.2
2018-06-25T08:15:46.507Z,14.18
2018-06-25T08:16:56.226Z,14.05
2018-06-25T08:18:06.202Z,14.07
2018-06-25T08:19:15.936Z,14.13
2018-06-25T08:20:26.080Z,14.12
2018-06-25T08:21:36.409Z,14.12
2018-06-25T08:22:46.449Z,14.16
2018-06-25T08:23:56.481Z,14.22
2018-06-25T08:25:06.466Z,14.34
2018-06-25T08:26:16.192Z,14.38
2018-06-25T08:27:26.162Z,14.58
2018-06-25T08:28:36.134Z,14.63
2018-06-25T08:29:46.461Z,14.79
2018-06-25T08:30:56.716Z,14.85
2018-06-25T08:32:06.430Z,14.86
2018-06-25T08:33:16.421Z,14.87
2018-06-25T08:34:27.275Z,14.92
2018-06-25T08:35:37.501Z,14.9
2018-06-25T08:36:47.487Z,14.77
2018-06-25T08:37:57.473Z,14.7
2018-06-25T08:39:07.725Z,14.62
2018-06-25T08:40:17.599Z,14.67
2018-06-25T08:41:27.539Z,14.62
2018-06-25T08:42:37.514Z,14.63
2018-06-25T08:43:47.511Z,14.7
2018-06-25T08:44:57.495Z,14.7
2018-06-25T08:46:07.480Z,14.78
2018-06-25T08:47:17.507Z,14.78
2018-06-25T08:48:27.482Z,14.78
2018-06-25T08:49:37.189Z,14.77
2018-06-25T08:50:47.174Z,14.71
2018-06-25T08:51:57.000Z,14.66
2018-06-25T08:53:07.338Z,14.66
2018-06-25T08:54:17.324Z,14.67
2018-06-25T08:55:27.034Z,14.68
2018-06-25T08:56:36.755Z,14.67
2018-06-25T08:57:46.785Z,14.79
2018-06-25T08:58:56.575Z,14.67
2018-06-25T09:00:06.718Z,14.71
2018-06-25T09:01:16.474Z,14.71
2018-06-25T09:02:26.187Z,14.68
2018-06-25T09:03:36.167Z,14.85
2018-06-25T09:04:46.146Z,14.93
2018-06-25T09:05:56.128Z,15
2018-06-25T09:07:06.102Z,14.99
2018-06-25T09:08:16.081Z,14.99
2018-06-25T09:09:25.802Z,15.14
2018-06-25T09:10:35.897Z,15.17
2018-06-25T09:11:45.873Z,15.29
2018-06-25T09:12:55.835Z,15.55
2018-06-25T09:14:05.826Z,15.59
2018-06-25T09:15:16.070Z,15.66
2018-06-25T09:16:26.339Z,15.69
2018-06-25T09:17:36.311Z,15.76
2018-06-25T09:18:46.292Z,15.87
2018-06-25T09:19:56.020Z,16.02
2018-06-25T09:21:05.506Z,16.32
2018-06-25T09:22:15.790Z,16.44
2018-06-25T09:23:25.237Z,16.4
2018-06-25T09:24:35.235Z,16.44
2018-06-25T09:25:45.226Z,16.4
2018-06-25T09:26:55.211Z,16.41
2018-06-25T09:28:05.025Z,16.51
2018-06-25T09:29:15.019Z,16.77
2018-06-25T09:30:25.005Z,16.77
2018-06-25T09:31:34.226Z,16.8
2018-06-25T09:32:44.214Z,16.99
2018-06-25T09:33:54.203Z,17.09
2018-06-25T09:35:03.910Z,17.2
2018-06-25T09:36:13.428Z,17.24
2018-06-25T09:37:23.412Z,17.1
2018-06-25T09:38:33.389Z,17.3
2018-06-25T09:39:43.353Z,17.19
2018-06-25T09:40:53.301Z,17.09
2018-06-25T09:42:03.528Z,17.12
2018-06-25T09:43:12.988Z,17.07
2018-06-25T09:44:22.969Z,16.97
2018-06-25T09:45:32.953Z,17.05
2018-06-25T09:46:42.944Z,17.13
2018-06-25T09:47:52.918Z,17.24
2018-06-25T09:49:02.894Z,17.27
2018-06-25T09:50:12.878Z,17.24
2018-06-25T09:51:22.581Z,17.34
2018-06-25T09:52:32.335Z,17.52
2018-06-25T09:53:42.313Z,17.6
2018-06-25T09:54:52.214Z,17.71
2018-06-25T09:56:02.473Z,17.73
2018-06-25T09:57:12.200Z,17.73
2018-06-25T09:58:22.187Z,17.66
2018-06-25T09:59:31.914Z,17.69
2018-06-25T10:00:41.636Z,17.72
2018-06-25T10:01:51.847Z,17.73
2018-06-25T10:03:01.818Z,17.73
2018-06-25T10:04:11.812Z,17.68
2018-06-25T10:05:21.807Z,17.59
2018-06-25T10:06:31.781Z,17.68
2018-06-25T10:07:41.504Z,17.5
2018-06-25T10:08:51.486Z,17.47
2018-06-25T10:10:01.208Z,17.54
2018-06-25T10:11:11.195Z,17.52
2018-06-25T10:12:20.927Z,17.39
2018-06-25T10:13:30.900Z,17.54
2018-06-25T10:14:40.646Z,17.63
2018-06-25T10:15:50.635Z,17.66
2018-06-25T10:17:00.701Z,17.52
2018-06-25T10:18:10.714Z,17.52
2018-06-25T10:19:20.701Z,17.68
2018-06-25T10:20:30.663Z,17.59
2018-06-25T10:21:40.385Z,17.82
2018-06-25T10:22:50.116Z,17.71
2018-06-25T10:24:00.105Z,17.69
2018-06-25T10:25:10.107Z,17.66
2018-06-25T10:26:20.092Z,17.68
2018-06-25T10:27:30.082Z,17.69
2018-06-25T10:28:40.060Z,17.82
2018-06-25T10:29:50.068Z,17.94
2018-06-25T10:30:59.529Z,17.82
2018-06-25T10:32:09.533Z,18.09
2018-06-25T10:33:19.514Z,18.43
2018-06-25T10:34:29.491Z,18.63
2018-06-25T10:35:39.222Z,18.91
2018-06-25T10:36:48.973Z,19.2
2018-06-25T10:37:58.962Z,19.35
2018-06-25T10:39:08.969Z,19.57
2018-06-25T10:40:18.944Z,19.72
2018-06-25T10:41:28.668Z,19.59
2018-06-25T10:42:39.200Z,19.66
2018-06-25T10:43:49.461Z,19.81
2018-06-25T10:44:59.475Z,19.99
2018-06-25T10:46:09.494Z,19.64
2018-06-25T10:47:19.513Z,19.55
2018-06-25T10:48:29.529Z,19.56
2018-06-25T10:49:39.517Z,19.48
2018-06-25T10:50:49.507Z,19.47
2018-06-25T10:51:59.484Z,19.35
2018-06-25T10:53:09.538Z,19.27
2018-06-25T10:54:18.773Z,19.49
2018-06-25T10:55:28.767Z,19.45
2018-06-25T10:56:38.785Z,19.34
2018-06-25T10:57:48.771Z,19.39
2018-06-25T10:58:58.499Z,19.56
2018-06-25T11:00:09.778Z,19.79
2018-06-25T11:01:19.285Z,19.84
2018-06-25T11:02:29.258Z,19.84
2018-06-25T11:03:39.243Z,19.85
2018-06-25T11:04:48.980Z,19.78
2018-06-25T11:05:58.912Z,19.92
2018-06-25T11:07:09.178Z,19.75
2018-06-25T11:08:19.079Z,19.74
2018-06-25T11:09:29.104Z,19.64
2018-06-25T11:10:39.077Z,19.67
2018-06-25T11:11:49.093Z,19.7
2018-06-25T11:12:59.216Z,19.79
2018-06-25T11:14:09.388Z,19.93
2018-06-25T11:15:19.141Z,20.52
2018-06-25T11:16:29.129Z,20.64
2018-06-25T11:17:38.857Z,20.64
2018-06-25T11:18:48.855Z,20.89
2018-06-25T11:19:58.323Z,21.01
2018-06-25T11:21:08.307Z,20.95
2018-06-25T11:22:18.313Z,21.15
2018-06-25T11:23:28.287Z,21.32
2018-06-25T11:24:38.017Z,21.51
2018-06-25T11:25:48.009Z,21.26
2018-06-25T11:26:58.580Z,21.04
2018-06-25T11:28:08.646Z,20.86
2018-06-25T11:29:18.689Z,20.93
2018-06-25T11:30:28.408Z,20.93
2018-06-25T11:31:38.409Z,20.83
2018-06-25T11:32:48.417Z,20.66
2018-06-25T11:33:58.431Z,20.78
2018-06-25T11:35:08.476Z,20.89
2018-06-25T11:36:17.958Z,21.01
2018-06-25T11:37:28.009Z,21.22
2018-06-25T11:38:38.016Z,21.11
2018-06-25T11:39:48.068Z,21.38
2018-06-25T11:40:57.815Z,21.84
2018-06-25T11:42:07.809Z,22.37
2018-06-25T11:43:17.550Z,22.71
2018-06-25T11:44:27.303Z,22.92
2018-06-25T11:45:37.011Z,22.43
2018-06-25T11:46:46.756Z,22.12
2018-06-25T11:47:56.495Z,21.94
2018-06-25T11:49:06.239Z,21.8
2018-06-25T11:50:15.984Z,22.08
2018-06-25T11:51:25.994Z,22.41
2018-06-25T11:52:35.978Z,22.73
2018-06-25T11:53:45.719Z,22.71
2018-06-25T11:54:55.460Z,22.68
2018-06-25T11:56:05.186Z,23.1
2018-06-25T11:57:15.165Z,23.25
2018-06-25T11:58:24.640Z,23.14
2018-06-25T11:59:34.659Z,22.76
2018-06-25T12:00:44.388Z,22.56
2018-06-25T12:01:54.529Z,22.55
2018-06-25T12:03:05.000Z,22.3
2018-06-25T12:04:15.618Z,22.43
2018-06-25T12:05:24.826Z,22.36
2018-06-25T12:06:34.578Z,22.33
2018-06-25T12:07:44.560Z,22.37
2018-06-25T12:08:54.539Z,22.06
2018-06-25T12:10:04.549Z,21.99
2018-06-25T12:11:14.294Z,21.75
2018-06-25T12:12:24.639Z,21.72
2018-06-25T12:13:34.935Z,21.69
2018-06-25T12:14:44.149Z,21.59
2018-06-25T12:15:53.890Z,21.69
2018-06-25T12:17:03.885Z,21.85
2018-06-25T12:18:13.876Z,21.99
2018-06-25T12:19:23.872Z,22.06
2018-06-25T12:20:33.622Z,22.01
2018-06-25T12:21:43.656Z,21.94
2018-06-25T12:22:53.679Z,21.92
2018-06-25T12:24:03.792Z,22.14
2018-06-25T12:25:13.775Z,21.97
2018-06-25T12:26:23.513Z,22.23
2018-06-25T12:27:33.562Z,22.55
2018-06-25T12:28:43.632Z,22.81
2018-06-25T12:29:53.367Z,23.07
2018-06-25T12:31:03.089Z,22.99
2018-06-25T12:32:12.993Z,23.29
2018-06-25T12:33:22.638Z,23.37
2018-06-25T12:34:32.643Z,23.21
2018-06-25T12:35:42.378Z,23.16
2018-06-25T12:36:52.151Z,22.99
2018-06-25T12:38:02.362Z,22.73
2018-06-25T12:39:12.218Z,22.41
2018-06-25T12:40:22.243Z,22.34
2018-06-25T12:41:32.476Z,22.31
2018-06-25T12:42:42.412Z,22.49
2018-06-25T12:43:52.405Z,22.49
2018-06-25T12:45:02.406Z,22.65
2018-06-25T12:46:12.124Z,22.84
2018-06-25T12:47:21.876Z,23.08
2018-06-25T12:48:31.668Z,23.54
2018-06-25T12:49:41.397Z,23.74
2018-06-25T12:50:51.134Z,23.85
2018-06-25T12:52:01.117Z,24.22
2018-06-25T12:53:10.854Z,24.55
2018-06-25T12:54:20.573Z,24.78
2018-06-25T12:55:30.584Z,24.81
2018-06-25T12:56:40.564Z,25.03
2018-06-25T12:57:50.547Z,25.03
2018-06-25T12:59:00.555Z,25.11
2018-06-25T13:00:10.543Z,25.16
2018-06-25T13:01:20.551Z,25.34
2018-06-25T13:02:30.660Z,25.7
2018-06-25T13:03:40.165Z,25.89
2018-06-25T13:04:50.395Z,25.99
2018-06-25T13:06:00.388Z,25.89
2018-06-25T13:07:10.409Z,25.46
2018-06-25T13:08:20.396Z,24.58
2018-06-25T13:09:30.141Z,24.43
2018-06-25T13:10:40.217Z,24.51
2018-06-25T13:11:50.228Z,24.53
2018-06-25T13:13:00.267Z,24.68
2018-06-25T13:14:10.274Z,24.48
2018-06-25T13:15:20.271Z,24.31
2018-06-25T13:16:30.292Z,24.24
2018-06-25T13:17:40.022Z,23.86
2018-06-25T13:18:50.029Z,24.03
2018-06-25T13:20:00.046Z,24.4
2018-06-25T13:21:10.037Z,24.5
2018-06-25T13:22:19.500Z,24.46
2018-06-25T13:23:29.260Z,24.36
2018-06-25T13:24:39.321Z,24.14
2018-06-25T13:25:49.858Z,23.99
2018-06-25T13:27:00.055Z,23.73
2018-06-25T13:28:09.801Z,23.56
2018-06-25T13:29:19.797Z,23.64
2018-06-25T13:30:29.794Z,23.89
2018-06-25T13:31:39.788Z,24
2018-06-25T13:32:49.513Z,23.82
2018-06-25T13:33:59.513Z,23.94
2018-06-25T13:35:09.503Z,23.88
2018-06-25T13:36:19.232Z,23.56
2018-06-25T13:37:28.957Z,23.26
2018-06-25T13:38:38.704Z,23.2
2018-06-25T13:39:48.679Z,23.25
2018-06-25T13:40:58.414Z,23.4
2018-06-25T13:42:08.413Z,23.71
2018-06-25T13:43:18.127Z,23.71
2018-06-25T13:44:28.298Z,23.66
2018-06-25T13:45:38.615Z,23.67
2018-06-25T13:46:48.839Z,23.55
2018-06-25T13:47:58.568Z,23.59
2018-06-25T13:49:08.288Z,23.49
2018-06-25T13:50:18.015Z,23.28
2018-06-25T13:51:27.993Z,23.18
2018-06-25T13:52:37.979Z,23.01
2018-06-25T13:53:47.697Z,23.01
2018-06-25T13:54:57.690Z,22.96
2018-06-25T13:56:07.707Z,23.02
2018-06-25T13:57:17.684Z,23.29
2018-06-25T13:58:27.686Z,23.34
2018-06-25T13:59:37.663Z,23.25
2018-06-25T14:00:47.877Z,23.08
2018-06-25T14:01:57.897Z,23.13
2018-06-25T14:03:07.884Z,23.07
2018-06-25T14:04:17.606Z,23.34
2018-06-25T14:05:27.574Z,23.4
2018-06-25T14:06:37.556Z,23.42
2018-06-25T14:07:47.578Z,23.47
2018-06-25T14:08:57.288Z,23.45
2018-06-25T14:10:07.307Z,23.4
2018-06-25T14:11:17.307Z,23.25
2018-06-25T14:12:26.791Z,23.21
2018-06-25T14:13:36.838Z,23.28
2018-06-25T14:14:46.573Z,23.32
2018-06-25T14:15:56.308Z,23.37
2018-06-25T14:17:06.546Z,23.4
2018-06-25T14:18:16.769Z,23.39
2018-06-25T14:19:26.744Z,23.45
2018-06-25T14:20:36.725Z,23.33
2018-06-25T14:21:46.707Z,23.47
2018-06-25T14:22:56.420Z,23.48
2018-06-25T14:24:06.392Z,23.23
2018-06-25T14:25:16.395Z,22.96
2018-06-25T14:26:26.130Z,22.92
2018-06-25T14:27:35.865Z,22.86
2018-06-25T14:28:45.838Z,22.78
2018-06-25T14:29:55.823Z,22.56
2018-06-25T14:31:05.818Z,22.46
2018-06-25T14:32:15.819Z,22.38
2018-06-25T14:33:25.803Z,22.37
2018-06-25T14:34:35.554Z,22.44
2018-06-25T14:35:45.541Z,22.59
2018-06-25T14:36:55.269Z,22.73
2018-06-25T14:38:04.995Z,22.76
2018-06-25T14:39:14.709Z,22.88
2018-06-25T14:40:24.841Z,22.76
2018-06-25T14:41:35.006Z,22.88
2018-06-25T14:42:44.992Z,23.02
2018-06-25T14:43:54.971Z,23.21
2018-06-25T14:45:04.973Z,23.44
2018-06-25T14:46:14.466Z,23.76
2018-06-25T14:47:24.454Z,24.01
2018-06-25T14:48:34.451Z,24.07
2018-06-25T14:49:44.457Z,23.96
2018-06-25T14:50:54.440Z,23.82
2018-06-25T14:52:04.426Z,23.64
2018-06-25T14:53:14.408Z,23.63
2018-06-25T14:54:24.129Z,23.64
2018-06-25T14:55:34.583Z,23.74
2018-06-25T14:56:44.330Z,23.95
2018-06-25T14:57:54.076Z,24.1
2018-06-25T14:59:04.092Z,24.03
2018-06-25T15:00:14.129Z,24.03
2018-06-25T15:01:23.841Z,23.96
2018-06-25T15:02:33.899Z,23.88
2018-06-25T15:03:44.062Z,23.76
2018-06-25T15:04:53.785Z,23.76